• Join FlightAware (Why Join?)
  • Login
  • US Flag 
06:45AM EDT


 

Airport Tracker/Info


-or-


 

Live Flight TrackerFlight Track Log ✈ N546QS ✈ 05-Jun-2013 ✈ LIML / LIN - KTEB

Flight Track Log - Related Links

Times and Time Zones

All times are in EDT time to prevent confusion due to time zone crossing. See the N546QS flight status page for this flight to view local times or setup timezone preferences in your user account.

Time Position Orientation Groundspeed Altitude Reporting Facility
EDT Latitude Longitude Course Direction KTS MPH feet Rate Location/Type
12:15PM 51.1708 -16.7101 298° West  Level Estimated
12:16PM 51.1845 -16.8621 278° West  Level Estimated
12:17PM 51.1980 -17.0142 278° West  Level Estimated
12:18PM 51.2113 -17.1663 278° West  Level Estimated
12:19PM 51.2244 -17.3186 278° West  Level Estimated
12:20PM 51.2373 -17.4709 278° West  Level Estimated
12:21PM 51.2500 -17.6233 278° West  Level Estimated
12:22PM 51.2626 -17.7758 278° West  Level Estimated
12:23PM 51.2749 -17.9284 277° West  Level Estimated
12:24PM 51.2870 -18.0811 277° West  Level Estimated
12:25PM 51.2989 -18.2338 277° West  Level Estimated
12:26PM 51.3106 -18.3867 277° West  Level Estimated
12:27PM 51.3221 -18.5396 277° West  Level Estimated
12:28PM 51.3334 -18.6925 277° West  Level Estimated
12:29PM 51.3446 -18.8456 277° West  Level Estimated
12:30PM 51.3555 -18.9987 277° West  Level Estimated
12:31PM 51.3662 -19.1519 276° West  Level Estimated
12:32PM 51.3767 -19.3052 276° West  Level Estimated
12:33PM 51.3870 -19.4585 276° West  Level Estimated
12:34PM 51.3971 -19.6119 276° West  Level Estimated
12:35PM 51.4071 -19.7654 276° West  Level Estimated
12:36PM 51.4168 -19.9190 276° West  Level Estimated
12:37PM 51.4263 -20.0726 276° West  Level Estimated
12:38PM 51.4356 -20.2262 276° West  Level Estimated
12:39PM 51.4447 -20.3800 275° West  Level Estimated
12:40PM 51.4536 -20.5338 275° West  Level Estimated
12:41PM 51.4623 -20.6876 275° West  Level Estimated
12:42PM 51.4709 -20.8415 275° West  Level Estimated
12:43PM 51.4792 -20.9955 275° West  Level Estimated
12:44PM 51.4873 -21.1495 275° West  Level Estimated
12:45PM 51.4952 -21.3036 275° West  Level Estimated
12:46PM 51.5029 -21.4577 275° West  Level Estimated
12:47PM 51.5104 -21.6119 275° West  Level Estimated
12:48PM 51.5177 -21.7661 274° West  Level Estimated
12:49PM 51.5248 -21.9204 274° West  Level Estimated
12:50PM 51.5317 -22.0747 274° West  Level Estimated
12:51PM 51.5384 -22.2291 274° West  Level Estimated
12:52PM 51.5448 -22.3835 274° West  Level Estimated
12:53PM 51.5511 -22.5380 274° West  Level Estimated
12:54PM 51.5572 -22.6925 274° West  Level Estimated
12:55PM 51.5631 -22.8470 274° West  Level Estimated
12:56PM 51.5688 -23.0016 273° West  Level Estimated
12:57PM 51.5742 -23.1562 273° West  Level Estimated
12:58PM 51.5795 -23.3109 273° West  Level Estimated
12:59PM 51.5846 -23.4656 273° West  Level Estimated
01:00PM 51.5895 -23.6203 273° West  Level Estimated
01:01PM 51.5941 -23.7751 273° West  Level Estimated
01:02PM 51.5986 -23.9299 273° West  Level Estimated
01:03PM 51.6028 -24.0847 273° West  Level Estimated
01:04PM 51.6069 -24.2395 272° West  Level Estimated
01:05PM 51.6107 -24.3944 272° West  Level Estimated
01:06PM 51.6144 -24.5493 272° West  Level Estimated
01:07PM 51.6178 -24.7042 272° West  Level Estimated
01:08PM 51.6210 -24.8592 272° West  Level Estimated
01:09PM 51.6241 -25.0142 272° West  Level Estimated
01:10PM 51.6269 -25.1691 272° West  Level Estimated
01:11PM 51.6295 -25.3242 272° West  Level Estimated
01:12PM 51.6319 -25.4792 272° West  Level Estimated
01:13PM 51.6341 -25.6342 271° West  Level Estimated
01:14PM 51.6362 -25.7893 271° West  Level Estimated
01:15PM 51.6380 -25.9443 271° West  Level Estimated
01:16PM 51.6396 -26.0994 271° West  Level Estimated
01:17PM 51.6410 -26.2545 271° West  Level Estimated
01:18PM 51.6422 -26.4096 271° West  Level Estimated
01:19PM 51.6431 -26.5647 271° West  Level Estimated
01:20PM 51.6439 -26.7198 271° West  Level Estimated
01:21PM 51.6445 -26.8750 270° West  Level Estimated
01:22PM 51.6449 -27.0301 270° West  Level Estimated
01:23PM 51.6451 -27.1852 270° West  Level Estimated
01:24PM 51.6450 -27.3403 270° West  Level Estimated
01:25PM 51.6448 -27.4954 270° West  Level Estimated
01:26PM 51.6443 -27.6506 270° West  Level Estimated
01:27PM 51.6437 -27.8057 270° West  Level Estimated
01:28PM 51.6428 -27.9608 270° West  Level Estimated
01:29PM 51.6418 -28.1159 269° West  Level Estimated
01:30PM 51.6405 -28.2710 269° West  Level Estimated
01:31PM 51.6391 -28.4261 269° West  Level Estimated
01:32PM 51.6374 -28.5812 269° West  Level Estimated
01:33PM 51.6355 -28.7362 269° West  Level Estimated
01:34PM 51.6334 -28.8913 269° West  Level Estimated
01:35PM 51.6312 -29.0463 269° West  Level Estimated
01:36PM 51.6287 -29.2013 269° West  Level Estimated
01:37PM 51.6260 -29.3563 268° West  Level Estimated
01:38PM 51.6231 -29.5113 268° West  Level Estimated
01:39PM 51.6200 -29.6663 268° West  Level Estimated
01:40PM 51.6167 -29.8212 268° West  Level Estimated
01:41PM 51.6132 -29.9761 268° West  Level Estimated
01:41PM 56.0000 -40.0000 264° West 470 541 43,000  Level ETMS Enhanced Traffic Management System
01:42PM 51.6095 -30.1310 268° West  Level Estimated
01:43PM 51.6056 -30.2859 268° West  Level Estimated
01:44PM 51.6015 -30.4407 268° West  Level Estimated
01:45PM 51.5971 -30.5955 267° West  Level Estimated
01:46PM 51.5926 -30.7503 267° West  Level Estimated
01:47PM 51.5879 -30.9051 267° West  Level Estimated
01:48PM 55.4320 -46.6503 259° West 470 541 43,000  Level FlightAware Transoceanic
01:49PM 55.4061 -46.8758 258° West 470 541 43,000  Level FlightAware Transoceanic
01:50PM 55.3798 -47.1010 258° West 470 541 43,000  Level FlightAware Transoceanic
01:51PM 55.3530 -47.3260 258° West 470 541 43,000  Level FlightAware Transoceanic
01:52PM 55.3258 -47.5506 258° West 470 541 43,000  Level FlightAware Transoceanic
01:53PM 55.2982 -47.7749 258° West 470 541 43,000  Level FlightAware Transoceanic
01:54PM 55.2702 -47.9989 258° West 470 541 43,000  Level FlightAware Transoceanic
01:55PM 55.2418 -48.2225 257° West 470 541 43,000  Level FlightAware Transoceanic
01:56PM 55.2130 -48.4459 257° West 470 541 43,000  Level FlightAware Transoceanic
01:57PM 55.1838 -48.6689 257° West 470 541 43,000  Level FlightAware Transoceanic
01:58PM 55.1542 -48.8916 257° West 470 541 43,000  Level FlightAware Transoceanic
01:59PM 55.1241 -49.1139 257° West 470 541 43,000  Level FlightAware Transoceanic
02:00PM 55.0937 -49.3360 256° West 470 541 43,000  Level FlightAware Transoceanic
02:01PM 55.0629 -49.5577 256° West 470 541 43,000  Level FlightAware Transoceanic
02:02PM 55.0316 -49.7790 256° West 470 541 43,000  Level FlightAware Transoceanic
02:03PM 54.9813 -49.9221 239° Southwest  Level Estimated
02:04PM 54.9309 -50.0649 238° Southwest  Level Estimated
02:05PM 54.8803 -50.2073 238° Southwest  Level Estimated
02:06PM 54.8295 -50.3493 238° Southwest  Level Estimated
02:07PM 54.7785 -50.4910 238° Southwest  Level Estimated
02:07PM 55.0000 -50.0000 251° West 485 558 43,000  Level ETMS Enhanced Traffic Management System
02:07PM 55.0000 -50.0000 251° West 485 558 43,000  Level ETMS Enhanced Traffic Management System
02:08PM 54.7274 -50.6324 238° Southwest  Level Estimated
02:09PM 54.6761 -50.7733 238° Southwest  Level Estimated
02:10PM 54.6246 -50.9139 238° Southwest  Level Estimated
02:11PM 54.5730 -51.0542 238° Southwest  Level Estimated
02:12PM 54.5213 -51.1941 238° Southwest  Level Estimated
02:13PM 54.5323 -52.1931 249° West 485 558 43,000  Level FlightAware Transoceanic
02:14PM 54.4834 -52.4096 249° West 485 558 43,000  Level FlightAware Transoceanic
02:15PM 54.4341 -52.6256 248° West 485 558 43,000  Level FlightAware Transoceanic
02:16PM 54.3844 -52.8411 248° West 485 558 43,000  Level FlightAware Transoceanic
02:17PM 54.3343 -53.0560 248° West 485 558 43,000  Level FlightAware Transoceanic
02:18PM 54.2839 -53.2704 248° West 485 558 43,000  Level FlightAware Transoceanic
02:19PM 54.2330 -53.4843 248° West 485 558 43,000  Level FlightAware Transoceanic
02:20PM 54.1818 -53.6977 248° West 485 558 43,000  Level FlightAware Transoceanic
02:21PM 54.1302 -53.9105 247° West 485 558 43,000  Level FlightAware Transoceanic
02:22PM 54.0783 -54.1228 247° West 485 558 43,000  Level FlightAware Transoceanic
02:23PM 54.0259 -54.3346 247° West 485 558 43,000  Level FlightAware Transoceanic
02:23PM 54.0500 -54.1500 232° Southwest 470 541 43,000  Level Gander Center
02:24PM 53.9732 -54.5458 247° West 485 558 43,000  Level FlightAware Transoceanic
02:24PM 54.0000 -54.3667 249° West 470 541 43,000  Level Gander Center
02:25PM 53.9201 -54.7565 247° West 485 558 43,000  Level FlightAware Transoceanic
02:25PM 53.9500 -54.5667 247° West 470 541 43,000  Level Gander Center
02:26PM 53.8615 -54.8860 233° Southwest  Level Estimated
02:26PM 53.8833 -54.7833 243° Southwest 480 552 43,000  Level Gander Center
02:27PM 53.8027 -55.0152 232° Southwest  Level Estimated
02:27PM 53.8500 -54.9500 251° West 480 552 43,000  Level Gander Center
02:28PM 53.7438 -55.1440 232° Southwest  Level Estimated
02:28PM 53.7833 -55.1667 243° Southwest 480 552 43,000  Level Gander Center
02:29PM 53.6847 -55.2724 232° Southwest  Level Estimated
02:29PM 53.7000 -55.3500 233° Southwest 480 552 43,000  Level Gander Center
02:30PM 53.6500 -55.5500 247° West 470 541 43,000  Level Gander Center
02:31PM 53.5667 -55.7333 233° Southwest 480 552 43,000  Level Gander Center
02:32PM 53.5167 -55.9167 245° Southwest 480 552 43,000  Level Gander Center
02:33PM 53.4333 -56.0833 230° Southwest 480 552 43,000  Level Gander Center
02:34PM 53.3833 -56.2833 247° West 480 552 43,000  Level Gander Center
02:34PM 53.3500 -56.3500 230° Southwest 480 552 43,000  Level Moncton Center
02:35PM 53.3000 -56.5000 241° Southwest 480 552 43,000  Level Gander Center
02:36PM 53.2333 -56.7000 241° Southwest 480 552 43,000  Level Gander Center
02:37PM 53.1500 -56.8833 233° Southwest 480 552 43,000  Level Gander Center
02:38PM 53.0833 -57.0500 236° Southwest 490 564 43,000  Level Gander Center
02:39PM 53.0167 -57.2500 241° Southwest 490 564 43,000  Level Gander Center
02:39PM 53.0000 -57.3000 241° Southwest 480 552 43,000  Level Moncton Center
02:40PM 52.9333 -57.4833 239° Southwest 480 552 43,000  Level Gander Center
02:41PM 52.8667 -57.6500 237° Southwest 470 541 43,000  Level Gander Center
02:42PM 52.8167 -57.8167 244° Southwest 460 529 43,000  Level Gander Center
02:43PM 52.7667 -58.0000 246° West 470 541 43,000  Level Gander Center
02:43PM 52.7333 -58.0667 230° Southwest 470 541 43,000  Level Moncton Center
02:44PM 52.6833 -58.2167 241° Southwest 470 541 43,000  Level Gander Center
02:45PM 52.6167 -58.3667 234° Southwest 470 541 43,000  Level Gander Center
02:46PM 52.5667 -58.5667 248° West 470 541 43,000  Level Gander Center
02:46PM 52.5500 -58.6167 241° Southwest 470 541 43,000  Level Moncton Center
02:47PM 52.4833 -58.7833 237° Southwest 480 552 43,000  Level Gander Center
02:48PM 52.4167 -58.9500 237° Southwest 470 541 43,000  Level Gander Center
02:49PM 52.3500 -59.1500 241° Southwest 480 552 43,000  Level Gander Center
02:50PM 52.3000 -59.3333 246° West 480 552 43,000  Level Gander Center
02:51PM 52.2167 -59.5000 231° Southwest 470 541 43,000  Level Gander Center
02:52PM 52.1500 -59.7000 242° Southwest 470 541 43,000  Level Gander Center
02:53PM 52.0833 -59.8667 237° Southwest 470 541 43,000  Level Gander Center
02:54PM 52.0167 -60.0667 242° Southwest 470 541 43,000  Level Gander Center
02:54PM 52.0167 -60.1000 270° West 470 541 43,000  Level Moncton Center
02:55PM 51.9333 -60.2667 231° Southwest 470 541 43,000  Level Moncton Center
02:56PM 51.8833 -60.4500 246° West 470 541 43,000  Level Gander Center
02:57PM 51.8000 -60.6333 234° Southwest 470 541 43,000  Level Gander Center
02:58PM 51.7333 -60.8000 237° Southwest 480 552 43,000  Level Gander Center
02:59PM 51.6667 -60.9833 240° Southwest 470 541 43,000  Level Gander Center
03:00PM 51.6000 -61.1500 237° Southwest 460 529 43,000  Level Gander Center
03:01PM 51.5333 -61.3333 240° Southwest 460 529 43,000  Level Gander Center
03:02PM 51.4667 -61.5000 237° Southwest 460 529 43,000  Level Gander Center
03:03PM 51.4000 -61.6833 240° Southwest 460 529 43,000  Level Gander Center
03:04PM 51.3333 -61.8667 240° Southwest 470 541 43,000  Level Gander Center
03:05PM 51.2667 -62.0333 237° Southwest 470 541 43,000  Level Gander Center
03:06PM 51.1833 -62.2167 234° Southwest 470 541 43,000  Level Gander Center
03:07PM 51.1167 -62.3667 235° Southwest 470 541 43,000  Level Gander Center
03:08PM 51.0500 -62.5667 242° Southwest 470 541 43,000  Level Gander Center
03:09PM 50.9833 -62.7500 240° Southwest 470 541 43,000  Level Gander Center
03:10PM 50.9167 -62.9333 240° Southwest 480 552 43,000  Level Gander Center
03:11PM 50.8167 -63.1167 229° Southwest 480 552 43,000  Level Gander Center
03:12PM 50.7500 -63.2667 235° Southwest 480 552 43,000  Level Gander Center
03:13PM 50.6833 -63.4500 240° Southwest 480 552 43,000  Level Gander Center
03:14PM 50.6167 -63.6333 240° Southwest 470 541 43,000  Level Gander Center
03:15PM 50.5333 -63.7833 229° Southwest 460 529 43,000  Level Gander Center
03:16PM 50.4500 -63.9667 235° Southwest 460 529 43,000  Level Gander Center
03:17PM 50.3833 -64.1333 238° Southwest 460 529 43,000  Level Gander Center
03:18PM 50.3167 -64.3000 238° Southwest 460 529 43,000  Level Gander Center
03:19PM 50.2500 -64.4500 235° Southwest 460 529 43,000  Level Gander Center
03:20PM 50.1667 -64.6167 232° Southwest 460 529 43,000  Level Gander Center
03:21PM 50.1000 -64.7833 238° Southwest 460 529 43,000  Level Gander Center
03:22PM 50.0333 -64.9500 238° Southwest 460 529 43,000  Level Gander Center
03:23PM 49.9500 -65.1000 229° Southwest 470 541 43,000  Level Gander Center
03:24PM 49.8833 -65.2833 241° Southwest 470 541 43,000  Level Gander Center
03:25PM 49.8000 -65.4500 232° Southwest 460 529 43,000  Level Gander Center
03:26PM 49.7167 -65.6000 229° Southwest 470 541 43,000  Level Gander Center
03:27PM 49.6500 -65.7833 241° Southwest 470 541 43,000  Level Gander Center
03:28PM 49.5667 -65.9167 226° Southwest 460 529 43,000  Level Gander Center
03:29PM 49.5000 -66.1000 241° Southwest 460 529 43,000  Level Gander Center
03:30PM 49.4333 -66.2500 236° Southwest 460 529 43,000  Level Gander Center
03:31PM 49.3500 -66.4167 233° Southwest 460 529 43,000  Level Gander Center
03:32PM 49.2833 -66.5667 236° Southwest 450 518 43,000  Level Gander Center
03:33PM 49.2000 -66.7167 230° Southwest 460 529 43,000  Level Gander Center
03:34PM 49.1333 -66.8833 239° Southwest 450 518 43,000  Level Gander Center
03:35PM 49.0500 -67.0167 226° Southwest 450 518 43,000  Level Gander Center
03:36PM 48.9833 -67.1333 229° Southwest 460 529 43,000  Level Montreal Center
03:37PM 48.9167 -67.2833 236° Southwest 460 529 43,000  Level Montreal Center
03:37PM 48.8833 -67.3833 243° Southwest 460 529 43,000  Level Moncton Center
03:38PM 48.8333 -67.4167 204° Southwest 450 518 43,000  Level Montreal Center
03:39PM 48.7500 -67.6000 235° Southwest 450 518 43,000  Level Montreal Center
03:40PM 48.6833 -67.7333 233° Southwest 450 518 43,000  Level Montreal Center
03:41PM 48.6000 -67.9000 233° Southwest 460 529 43,000  Level Montreal Center
03:42PM 48.5333 -68.0333 233° Southwest 460 529 43,000  Level Montreal Center
03:43PM 48.4333 -68.2000 228° Southwest 460 529 43,000  Level Montreal Center
03:44PM 48.3667 -68.3500 236° Southwest 450 518 43,000  Level Montreal Center
03:45PM 48.3000 -68.5167 239° Southwest 450 518 43,000  Level Montreal Center
03:46PM 48.2167 -68.6500 227° Southwest 450 518 43,000  Level Montreal Center
03:47PM 48.1500 -68.8167 239° Southwest 450 518 43,000  Level Montreal Center
03:48PM 48.0667 -68.9500 227° Southwest 460 529 43,000  Level Montreal Center
03:49PM 48.0000 -69.1000 236° Southwest 450 518 43,000  Level Montreal Center
03:50PM 47.9167 -69.2500 230° Southwest 450 518 43,000  Level Montreal Center
03:51PM 47.8167 -69.3833 222° Southwest 460 529 43,000  Level Montreal Center
03:52PM 47.7000 -69.4667 206° Southwest 460 529 43,000  Level Montreal Center
03:53PM 47.6000 -69.5833 218° Southwest 460 529 43,000  Level Montreal Center
03:54PM 47.4833 -69.6833 210° Southwest 460 529 43,000  Level Montreal Center
03:55PM 47.3833 -69.7833 214° Southwest 460 529 43,000  Level Montreal Center
03:56PM 47.2667 -69.8833 210° Southwest 460 529 43,000  Level Montreal Center
03:57PM 47.1667 -69.9833 214° Southwest 460 529 43,000  Level Montreal Center
03:58PM 47.0667 -70.0833 214° Southwest 460 529 43,000  Level Montreal Center
03:58PM 47.0167 -70.1500 222° Southwest 460 529 43,000  Level Moncton Center
03:59PM 46.9500 -70.1833 199° South 450 518 43,000  Level Montreal Center
04:00PM 46.8500 -70.3000 219° Southwest 450 518 43,000  Level Montreal Center
04:01PM 46.7333 -70.3833 206° Southwest 450 518 43,000  Level Montreal Center
04:02PM 46.6333 -70.5000 219° Southwest 460 529 43,000  Level Montreal Center
04:02PM 46.6000 -70.5333 214° Southwest 460 529 43,000  Level Moncton Center
04:03PM 46.4833 -70.6500 215° Southwest 450 518 43,000  Level Moncton Center
04:04PM 46.3833 -70.7333 210° Southwest 450 518 43,000  Level Moncton Center
04:05PM 46.3167 -70.7667 199° South 450 518 43,000  Level Montreal Center
04:06PM 46.2167 -70.8833 219° Southwest 440 506 43,000  Level Montreal Center
04:07PM 46.1000 -70.9667 206° Southwest 450 518 43,000  Level Montreal Center
04:08PM 46.0000 -71.0667 215° Southwest 450 518 43,000  Level Montreal Center
04:09PM 45.8833 -71.1500 206° Southwest 450 518 43,000  Level Montreal Center
04:09PM 45.8500 -71.2167 234° Southwest 450 518 43,000  Level Moncton Center
04:10PM 45.7500 -71.3000 210° Southwest 460 529 43,000  Level Moncton Center
04:11PM 45.6333 -71.4167 215° Southwest 450 518 43,000  Level Moncton Center
04:12PM 45.5667 -71.4500 199° South 460 529 43,000  Level Montreal Center
04:13PM 45.4667 -71.5167 205° Southwest 460 529 43,000  Level Montreal Center
04:14PM 45.3500 -71.6333 215° Southwest 460 529 43,000  Level Montreal Center
04:15PM 45.2333 -71.7333 211° Southwest 460 529 43,000  Level Montreal Center
04:16PM 45.1333 -71.8333 215° Southwest 460 529 43,000  Level Montreal Center
04:16PM 45.1139 -71.8636 228° Southwest 473 544 43,000  Level Boston Center
04:17PM 45.0039 -71.9558 211° Southwest 468 539 43,000  Level Boston Center
04:18PM 44.8919 -72.0503 211° Southwest 468 539 43,000  Level Boston Center
04:19PM 44.7797 -72.1447 211° Southwest 468 539 43,000  Level Boston Center
04:20PM 44.6925 -72.2211 212° Southwest 468 539 43,000 -180 Level Boston Center
04:21PM 44.5572 -72.3353 211° Southwest 468 539 42,700 -900 Descending Boston Center
04:22PM 44.4508 -72.4225 210° Southwest 468 539 41,200 -1,680 Descending Boston Center
04:23PM 44.3447 -72.5128 211° Southwest 457 526 39,400 -1,800 Descending Boston Center
04:24PM 44.2258 -72.6111 211° Southwest 451 519 37,600 -1,680 Descending Boston Center
04:25PM 44.1214 -72.6975 211° Southwest 446 513 36,100 -1,500 Descending Boston Center
04:26PM 44.0211 -72.7808 211° Southwest 441 507 34,700 -1,440 Descending Boston Center
04:27PM 43.9147 -72.8694 211° Southwest 441 507 33,300 -1,440 Descending Boston Center
04:28PM 43.8081 -72.9578 211° Southwest 447 514 31,900 -1,380 Descending Boston Center
04:29PM 43.6972 -73.0489 211° Southwest 458 527 30,600 -1,320 Descending Boston Center
04:30PM 43.5986 -73.1281 210° Southwest 458 527 29,300 -1,380 Descending Boston Center
04:31PM 43.4919 -73.2156 211° Southwest 453 521 27,900 -1,500 Descending Boston Center
04:32PM 43.3786 -73.3086 211° Southwest 446 513 26,400 -1,440 Descending Boston Center
04:33PM 43.2717 -73.3925 210° Southwest 446 513 25,100 -1,200 Descending Boston Center
04:34PM 43.1667 -73.4792 211° Southwest 446 513 24,000 -840 Descending Boston Center
04:35PM 43.0619 -73.5542 208° Southwest 446 513 23,500 -1,140 Descending Boston Center
04:36PM 42.9589 -73.6372 211° Southwest 441 507 21,800 -1,800 Descending Boston Center
04:37PM 42.8622 -73.7175 211° Southwest 429 494 19,900 -1,920 Descending Boston Center
04:38PM 42.7653 -73.7947 210° Southwest 416 479 18,000 -1,740 Descending Boston Center
04:39PM 42.6686 -73.8661 209° Southwest 411 473 16,500 -1,020 Descending Boston Center
04:40PM 42.5719 -73.9344 208° Southwest 406 467 16,000 -300 Descending Boston Center
04:41PM 42.4836 -73.9997 209° Southwest 400 460 16,000  Level Boston Center
04:42PM 42.3803 -74.0786 209° Southwest 395 455 16,000 -360 Level Boston Center
04:43PM 42.2875 -74.1464 208° Southwest 394 453 15,300 -960 Descending Boston Center
04:44PM 42.1947 -74.2139 208° Southwest 394 453 14,100 -660 Descending Boston Center
04:45PM 42.1000 -74.2814 208° Southwest 389 448 14,000 -540 Descending Boston Center
04:46PM 42.0031 -74.3344 202° Southwest 384 442 13,100 -1,260 Descending Boston Center
04:47PM 41.9044 -74.3758 197° South 379 436 11,500 -1,260 Descending Boston Center
04:48PM 41.8331 -74.4072 198° South 368 423 10,400 -1,140 Descending Boston Center
04:49PM 41.7364 -74.4514 199° South 320 368 9,100 -1,200 Descending Boston Center
04:50PM 41.6589 -74.4825 197° South 297 342 8,100 -1,020 Descending Boston Center
04:51PM 41.5853 -74.5161 199° South 286 329 7,100 -1,080 Descending Boston Center
04:52PM 41.5158 -74.5444 197° South 280 322 6,000 -600 Descending Boston Center
04:53PM 41.4444 -74.5753 198° South 268 308 6,000  Level Boston Center
04:55PM 41.3500 -74.6167 198° South 265 305 6,000 -420 Level New York TRACON
04:56PM 41.2833 -74.6333 191° South 261 300 5,100 -720 Descending New York TRACON
04:57PM 41.2167 -74.6500 191° South 263 303 4,700 -540 Descending New York TRACON
04:58PM 41.1500 -74.6000 151° Southeast 264 304 4,100 -360 Descending New York TRACON
04:59PM 41.1000 -74.5333 135° Southeast 260 299 4,000 -240 Descending New York TRACON
05:00PM 41.0833 -74.4500 105° East 261 300 3,700 -540 Descending New York TRACON
05:01PM 41.0500 -74.3667 118° Southeast 233 268 3,000 -360 Descending New York TRACON
05:02PM 41.0167 -74.2833 118° Southeast 223 257 3,000 -240 Level New York TRACON
05:03PM 41.0167 -74.2167 90° East 221 254 2,600 -540 Descending New York TRACON
05:04PM 41.0333 -74.1333 75° East 196 226 2,000 -300 Descending New York TRACON
05:05PM 41.0167 -74.0667 108° East 187 215 2,000  Level New York TRACON
05:06PM 40.9833 -74.0500 159° South 182 209 2,000 -300 Level New York TRACON
05:07PM 40.9333 -74.0500 180° South 163 188 1,500 -600 Descending New York TRACON
05:08PM 40.8833 -74.0500 180° South 134 154 800 -720 Descending New York TRACON